Time;durP1;ratioP1;P1;durP2;ratioP2;P2;SDS_P1;SDS_P2;PMS_P1;PMS_P2;Temp;Humidity;BMP_temperature;BMP_pressure;BME280_temperature;BME280_humidity;BME280_pressure;Samples;Min_cycle;Max_cycle;Signal;HPM_P1;HPM_P2
2023/08/08 00:02:05;;;;;;;4.40;2.30;;;15.00;99.90;;;;;;4986053;28;20053;-57
2023/08/08 00:04:31;;;;;;;7.75;2.80;;;15.10;99.90;;;;;;4986945;28;20664;-57
2023/08/08 00:06:57;;;;;;;7.15;2.25;;;15.00;99.90;;;;;;4983947;28;20458;-59
2023/08/08 00:09:22;;;;;;;5.30;2.70;;;14.90;99.90;;;;;;4977820;28;20610;-58
2023/08/08 00:11:48;;;;;;;5.72;2.30;;;14.90;99.90;;;;;;4986487;28;20038;-58
2023/08/08 00:14:14;;;;;;;3.75;2.47;;;14.90;99.90;;;;;;4985191;28;20260;-58
2023/08/08 00:16:40;;;;;;;4.45;2.50;;;14.90;99.90;;;;;;4986398;28;20031;-57
2023/08/08 00:19:05;;;;;;;4.32;2.50;;;14.90;99.90;;;;;;4984303;28;20038;-58
2023/08/08 00:21:31;;;;;;;4.70;2.80;;;15.00;99.90;;;;;;4986640;28;20096;-58
2023/08/08 00:23:56;;;;;;;5.05;2.67;;;14.90;99.90;;;;;;4985583;28;20023;-59
2023/08/08 00:26:22;;;;;;;9.32;2.50;;;15.00;99.90;;;;;;4986158;28;20058;-58
2023/08/08 00:28:48;;;;;;;4.78;2.65;;;14.90;99.90;;;;;;4982215;28;20055;-58
2023/08/08 00:31:16;;;;;;;4.95;2.50;;;14.80;99.90;;;;;;4985008;28;20030;-57
2023/08/08 00:33:42;;;;;;;3.90;2.60;;;14.90;99.90;;;;;;4986646;28;20030;-58
2023/08/08 00:36:08;;;;;;;3.40;2.55;;;14.90;99.90;;;;;;4986328;28;20038;-57
2023/08/08 00:38:33;;;;;;;3.35;2.50;;;14.90;99.90;;;;;;4992417;28;20099;-57
2023/08/08 00:40:59;;;;;;;6.38;2.97;;;14.90;99.90;;;;;;4985983;28;20019;-57
2023/08/08 00:43:24;;;;;;;4.72;2.50;;;14.80;99.90;;;;;;4984719;28;20402;-57
2023/08/08 00:45:50;;;;;;;9.82;3.08;;;14.80;99.90;;;;;;4986082;28;20038;-57
2023/08/08 00:48:17;;;;;;;5.47;2.90;;;14.60;99.90;;;;;;4986122;28;20492;-57
2023/08/08 00:50:46;;;;;;;6.20;2.67;;;14.60;99.90;;;;;;4985489;28;20038;-57
2023/08/08 00:53:12;;;;;;;5.80;2.85;;;14.60;99.90;;;;;;4986555;28;20473;-57
2023/08/08 00:55:38;;;;;;;6.82;2.78;;;14.70;99.90;;;;;;4972807;28;20261;-58
2023/08/08 00:58:04;;;;;;;13.68;3.00;;;14.70;99.90;;;;;;4984198;28;20068;-57
2023/08/08 01:00:30;;;;;;;6.15;3.00;;;14.70;99.90;;;;;;4983027;28;20042;-58
2023/08/08 01:02:55;;;;;;;6.95;3.08;;;14.70;99.90;;;;;;4986032;28;20058;-58
2023/08/08 01:05:21;;;;;;;5.70;2.78;;;14.70;99.90;;;;;;4984226;28;20237;-59
2023/08/08 01:07:59;;;;;;;5.57;3.08;;;14.60;99.90;;;;;;4984868;28;20026;-57
2023/08/08 01:10:29;;;;;;;4.75;2.80;;;14.70;99.90;;;;;;4968992;28;20125;-57
2023/08/08 01:13:05;;;;;;;9.02;3.28;;;14.60;99.90;;;;;;4985953;28;20173;-58
2023/08/08 01:15:35;;;;;;;6.40;2.95;;;14.80;99.90;;;;;;4984857;28;20045;-58
2023/08/08 01:18:04;;;;;;;6.47;3.45;;;14.60;99.90;;;;;;4985420;28;20398;-58
2023/08/08 01:20:33;;;;;;;7.35;3.10;;;14.60;99.90;;;;;;4985476;28;20045;-58
2023/08/08 01:23:20;;;;;;;5.38;3.63;;;14.70;99.90;;;;;;4990050;28;20045;-58
2023/08/08 01:25:47;;;;;;;4.65;3.45;;;14.70;99.90;;;;;;4984495;28;20105;-58
2023/08/08 01:28:13;;;;;;;6.82;3.60;;;14.70;99.90;;;;;;4984398;28;20076;-58
2023/08/08 01:30:39;;;;;;;6.20;3.35;;;14.60;99.90;;;;;;4985784;28;20042;-57
2023/08/08 01:33:06;;;;;;;11.65;3.83;;;14.70;99.90;;;;;;4984857;28;20121;-58
2023/08/08 01:35:40;;;;;;;5.70;3.65;;;14.70;99.90;;;;;;4984906;28;20637;-57
2023/08/08 01:38:19;;;;;;;7.03;3.50;;;14.60;99.90;;;;;;4984175;28;20070;-58
2023/08/08 01:40:45;;;;;;;6.47;3.40;;;14.70;99.90;;;;;;4965028;28;20065;-59
2023/08/08 01:43:13;;;;;;;7.65;3.35;;;14.80;99.90;;;;;;4985198;28;20108;-59
2023/08/08 01:45:39;;;;;;;9.23;3.67;;;14.80;99.90;;;;;;4985356;28;20038;-59
2023/08/08 01:48:09;;;;;;;7.75;3.38;;;14.80;99.90;;;;;;4986152;28;20065;-58
2023/08/08 01:50:35;;;;;;;8.02;3.30;;;14.80;99.90;;;;;;4984800;28;20046;-60
2023/08/08 01:53:01;;;;;;;7.10;3.50;;;14.80;99.90;;;;;;4985019;28;20038;-59
2023/08/08 01:55:27;;;;;;;6.55;3.38;;;14.90;99.90;;;;;;4987281;28;20341;-59
2023/08/08 01:57:52;;;;;;;8.80;3.55;;;14.80;99.90;;;;;;4978399;28;20061;-59
2023/08/08 02:00:18;;;;;;;6.32;3.28;;;14.90;99.90;;;;;;4982234;28;20038;-60
2023/08/08 02:02:44;;;;;;;4.28;2.80;;;14.80;99.90;;;;;;4985163;28;20113;-59
2023/08/08 02:05:09;;;;;;;5.32;3.08;;;14.90;99.90;;;;;;4984535;28;20046;-59
2023/08/08 02:07:35;;;;;;;9.13;3.38;;;14.90;99.90;;;;;;4980957;28;20073;-57
2023/08/08 02:10:01;;;;;;;8.65;3.10;;;14.80;99.90;;;;;;4983939;28;20125;-60
2023/08/08 02:12:28;;;;;;;5.55;3.17;;;14.80;99.90;;;;;;4984551;28;20559;-58
2023/08/08 02:14:54;;;;;;;6.82;3.30;;;14.80;99.90;;;;;;4983617;28;20478;-59
2023/08/08 02:17:21;;;;;;;4.55;2.97;;;14.80;99.90;;;;;;4983363;28;20049;-59
2023/08/08 02:19:46;;;;;;;4.60;3.10;;;14.90;99.90;;;;;;4985466;28;20026;-59
2023/08/08 02:22:12;;;;;;;7.32;3.45;;;14.90;99.90;;;;;;4970564;28;20030;-59
2023/08/08 02:24:37;;;;;;;5.15;3.38;;;14.90;99.90;;;;;;4986599;28;20031;-58
2023/08/08 02:27:04;;;;;;;6.13;3.13;;;14.90;99.90;;;;;;4987724;28;20042;-61
2023/08/08 02:29:29;;;;;;;9.55;3.60;;;14.90;99.90;;;;;;4988589;28;20045;-58
2023/08/08 02:31:55;;;;;;;6.88;3.28;;;14.90;99.90;;;;;;4988011;28;20030;-58
2023/08/08 02:34:21;;;;;;;7.90;3.42;;;14.90;99.90;;;;;;4988249;28;20042;-57
2023/08/08 02:36:46;;;;;;;7.03;3.30;;;14.70;99.90;;;;;;4991157;28;20512;-57
2023/08/08 02:39:12;;;;;;;6.45;3.50;;;14.80;99.90;;;;;;4974032;28;20042;-57
2023/08/08 02:41:38;;;;;;;8.25;3.20;;;14.80;99.90;;;;;;4988602;28;20034;-59
2023/08/08 02:44:03;;;;;;;7.85;3.53;;;14.80;99.90;;;;;;4987299;28;20541;-59
2023/08/08 02:46:29;;;;;;;7.65;3.47;;;14.80;99.90;;;;;;4988499;28;20030;-57
2023/08/08 02:48:54;;;;;;;8.38;3.63;;;14.80;99.90;;;;;;4988301;28;20041;-59
2023/08/08 02:51:20;;;;;;;7.60;3.38;;;14.80;99.90;;;;;;4987957;28;20125;-59
2023/08/08 02:53:45;;;;;;;6.07;3.63;;;14.70;99.90;;;;;;4984237;28;20030;-59
2023/08/08 02:56:11;;;;;;;11.00;4.38;;;14.80;99.90;;;;;;4987321;28;20031;-57
2023/08/08 02:58:37;;;;;;;7.10;3.83;;;14.80;99.90;;;;;;4988220;28;20038;-59
2023/08/08 03:01:02;;;;;;;7.22;3.33;;;14.80;99.90;;;;;;4984838;28;20038;-57
2023/08/08 03:03:28;;;;;;;9.98;3.60;;;14.80;99.90;;;;;;4988689;28;20129;-60
2023/08/08 03:05:53;;;;;;;7.57;3.60;;;14.80;99.90;;;;;;4985369;28;20026;-59
2023/08/08 03:08:19;;;;;;;8.05;3.85;;;14.80;99.90;;;;;;4985395;28;20060;-59
2023/08/08 03:10:45;;;;;;;7.55;4.00;;;14.80;99.90;;;;;;4988091;28;20123;-59
2023/08/08 03:13:10;;;;;;;7.90;3.50;;;14.80;99.90;;;;;;4987019;28;20124;-59
2023/08/08 03:15:36;;;;;;;8.85;4.07;;;14.80;99.90;;;;;;4994747;28;20043;-60
2023/08/08 03:18:02;;;;;;;10.57;4.20;;;14.70;99.90;;;;;;4988975;28;20046;-60
2023/08/08 03:20:29;;;;;;;9.00;3.75;;;14.80;99.90;;;;;;4988620;28;20034;-60
2023/08/08 03:22:54;;;;;;;9.80;4.03;;;14.80;99.90;;;;;;4987865;28;20585;-61
2023/08/08 03:25:20;;;;;;;8.25;4.13;;;14.70;99.90;;;;;;4987385;28;20058;-61
2023/08/08 03:27:45;;;;;;;7.63;4.05;;;14.70;99.90;;;;;;4986950;28;20379;-61
2023/08/08 03:30:12;;;;;;;8.90;4.35;;;14.70;99.90;;;;;;4969757;28;20046;-60
2023/08/08 03:32:37;;;;;;;10.55;4.00;;;14.80;99.90;;;;;;4987875;28;20034;-60
2023/08/08 03:35:04;;;;;;;9.70;3.83;;;14.80;99.90;;;;;;4987061;28;20041;-61
2023/08/08 03:37:30;;;;;;;9.75;4.57;;;14.80;99.90;;;;;;4981352;28;20045;-61
2023/08/08 03:39:55;;;;;;;7.72;4.03;;;14.80;99.90;;;;;;4987557;28;20030;-60
2023/08/08 03:42:21;;;;;;;10.02;4.10;;;14.80;99.90;;;;;;4987037;28;20042;-60
2023/08/08 03:44:46;;;;;;;8.45;4.13;;;14.80;99.90;;;;;;4987359;28;20774;-60
2023/08/08 03:47:12;;;;;;;13.30;4.20;;;14.70;99.90;;;;;;4985771;28;20383;-60
2023/08/08 03:49:37;;;;;;;8.50;3.92;;;14.70;99.90;;;;;;4986547;28;20037;-61
2023/08/08 03:52:03;;;;;;;7.82;3.92;;;14.70;99.90;;;;;;4968922;28;20154;-61
2023/08/08 03:54:29;;;;;;;10.95;3.97;;;14.60;99.90;;;;;;4987622;28;20038;-60
2023/08/08 03:56:55;;;;;;;13.30;4.00;;;14.50;99.90;;;;;;4986716;28;20042;-61
2023/08/08 03:59:20;;;;;;;9.25;4.03;;;14.50;99.90;;;;;;4983712;28;20027;-59
2023/08/08 04:01:46;;;;;;;9.63;3.97;;;14.50;99.90;;;;;;4986019;28;20065;-58
2023/08/08 04:04:11;;;;;;;6.75;3.97;;;14.50;99.90;;;;;;4986531;28;20030;-58
2023/08/08 04:06:37;;;;;;;9.75;3.97;;;14.60;99.90;;;;;;4986737;28;20185;-59
2023/08/08 04:09:03;;;;;;;10.70;4.00;;;14.50;99.90;;;;;;4980800;28;20049;-58
2023/08/08 04:11:28;;;;;;;9.38;3.92;;;14.50;99.90;;;;;;4981499;28;20482;-58
2023/08/08 04:13:54;;;;;;;13.75;3.78;;;14.60;99.90;;;;;;4967415;28;20026;-58
2023/08/08 04:16:19;;;;;;;8.88;4.00;;;14.60;99.90;;;;;;4984850;28;20034;-59
2023/08/08 04:18:45;;;;;;;11.70;4.13;;;14.60;99.90;;;;;;4985335;28;20048;-59
2023/08/08 04:21:11;;;;;;;10.68;4.20;;;14.60;99.90;;;;;;4966705;28;20105;-60
2023/08/08 04:23:36;;;;;;;12.35;4.35;;;14.60;99.90;;;;;;4985946;28;20042;-60
2023/08/08 04:26:02;;;;;;;8.57;4.43;;;14.60;99.90;;;;;;4983045;28;20113;-60
2023/08/08 04:28:27;;;;;;;12.27;4.38;;;14.70;99.90;;;;;;4985912;28;20081;-58
2023/08/08 04:30:53;;;;;;;12.23;4.38;;;14.70;99.90;;;;;;4984920;28;20410;-60
2023/08/08 04:33:19;;;;;;;8.27;4.30;;;14.60;99.90;;;;;;4985507;28;20109;-60
2023/08/08 04:35:45;;;;;;;11.85;4.97;;;14.60;99.90;;;;;;4984833;28;20034;-60
2023/08/08 04:38:10;;;;;;;12.88;4.75;;;14.60;99.90;;;;;;4985740;28;20035;-61
2023/08/08 04:40:36;;;;;;;13.23;5.20;;;14.60;99.90;;;;;;4984668;28;20065;-60
2023/08/08 04:43:01;;;;;;;11.75;4.78;;;14.70;99.90;;;;;;4983073;28;20129;-60
2023/08/08 04:45:28;;;;;;;15.15;5.43;;;14.70;99.90;;;;;;4985283;28;20038;-60
2023/08/08 04:47:54;;;;;;;14.45;4.97;;;14.70;99.90;;;;;;4984383;28;20045;-60
2023/08/08 04:50:20;;;;;;;13.60;5.25;;;14.60;99.90;;;;;;4981657;28;20038;-61
2023/08/08 04:52:46;;;;;;;15.18;5.20;;;14.60;99.90;;;;;;4984611;28;20042;-59
2023/08/08 04:55:11;;;;;;;14.90;5.50;;;14.60;99.90;;;;;;4977680;28;20200;-60
2023/08/08 04:57:37;;;;;;;9.95;5.07;;;14.70;99.90;;;;;;4985312;28;20308;-60
2023/08/08 05:00:05;;;;;;;9.88;5.80;;;14.70;99.90;;;;;;4982861;28;20060;-61
2023/08/08 05:02:31;;;;;;;12.48;5.40;;;14.70;99.90;;;;;;4983844;28;20414;-60
2023/08/08 05:04:56;;;;;;;16.92;6.13;;;14.80;99.90;;;;;;4982230;28;20043;-60
2023/08/08 05:07:22;;;;;;;11.10;5.15;;;14.70;99.90;;;;;;4984972;28;20042;-60
2023/08/08 05:09:47;;;;;;;10.55;5.28;;;14.80;99.90;;;;;;4986260;28;20053;-58
2023/08/08 05:12:13;;;;;;;14.25;5.80;;;14.80;99.90;;;;;;4985339;28;20065;-59
2023/08/08 05:14:39;;;;;;;13.13;5.68;;;14.90;99.90;;;;;;4982476;28;20049;-58
2023/08/08 05:17:04;;;;;;;17.08;6.22;;;14.90;99.90;;;;;;4977123;28;20137;-58
2023/08/08 05:19:30;;;;;;;12.60;5.60;;;14.90;99.90;;;;;;4971665;28;20112;-58
2023/08/08 05:21:55;;;;;;;16.67;6.15;;;15.00;99.90;;;;;;4982662;28;20030;-58
2023/08/08 05:24:21;;;;;;;13.40;7.20;;;15.00;99.90;;;;;;4984243;28;20043;-59
2023/08/08 05:26:47;;;;;;;15.70;7.05;;;15.00;99.90;;;;;;4984334;28;20362;-60
2023/08/08 05:29:12;;;;;;;15.40;6.43;;;14.90;99.90;;;;;;4985264;28;20037;-58
2023/08/08 05:31:38;;;;;;;16.67;6.97;;;15.00;99.90;;;;;;4984800;28;20252;-58
2023/08/08 05:34:03;;;;;;;12.30;6.65;;;15.00;99.90;;;;;;4982999;28;20113;-59
2023/08/08 05:36:29;;;;;;;22.30;7.57;;;15.00;99.90;;;;;;4974982;28;20034;-58
2023/08/08 05:38:54;;;;;;;12.68;7.03;;;14.90;99.90;;;;;;4987025;28;20038;-58
2023/08/08 05:41:20;;;;;;;15.10;8.00;;;15.00;99.90;;;;;;4981978;28;20023;-58
2023/08/08 05:43:45;;;;;;;20.77;7.75;;;15.00;99.90;;;;;;4985185;28;20076;-58
2023/08/08 05:46:11;;;;;;;13.57;7.57;;;15.00;99.90;;;;;;4984917;28;20077;-58
2023/08/08 05:48:37;;;;;;;15.75;7.93;;;15.10;99.90;;;;;;4983309;28;20036;-58
2023/08/08 05:51:04;;;;;;;14.30;7.90;;;15.00;99.90;;;;;;4974496;28;20097;-58
2023/08/08 05:53:31;;;;;;;16.70;8.02;;;15.10;99.90;;;;;;4984183;28;20034;-58
2023/08/08 05:55:56;;;;;;;22.42;8.60;;;15.10;99.90;;;;;;4988888;28;20031;-58
2023/08/08 05:58:22;;;;;;;20.83;8.68;;;15.10;99.90;;;;;;4982885;28;20041;-57
2023/08/08 06:00:48;;;;;;;15.80;8.70;;;15.10;99.90;;;;;;4990183;28;20037;-57
2023/08/08 06:03:13;;;;;;;20.77;9.30;;;15.10;99.90;;;;;;4968132;28;20033;-58
2023/08/08 06:05:39;;;;;;;15.65;9.00;;;15.20;99.90;;;;;;4986613;28;20101;-58
2023/08/08 06:08:07;;;;;;;20.38;10.52;;;15.30;99.90;;;;;;4988698;28;20045;-58
2023/08/08 06:10:34;;;;;;;23.13;11.73;;;15.20;99.90;;;;;;4971636;28;20505;-58
2023/08/08 06:13:00;;;;;;;21.15;11.02;;;15.30;99.90;;;;;;4987986;28;20457;-57
2023/08/08 06:15:25;;;;;;;25.45;10.38;;;15.40;99.90;;;;;;4988396;28;20096;-58
2023/08/08 06:17:51;;;;;;;19.90;10.90;;;15.40;99.90;;;;;;4986198;28;20030;-58
2023/08/08 06:20:16;;;;;;;19.67;9.80;;;15.40;99.90;;;;;;4987162;28;20379;-58
2023/08/08 06:22:42;;;;;;;26.60;10.20;;;15.50;99.90;;;;;;4982182;28;20188;-59
2023/08/08 06:25:08;;;;;;;22.15;10.13;;;15.50;99.90;;;;;;4977615;28;20034;-58
2023/08/08 06:27:33;;;;;;;20.25;10.57;;;15.60;99.90;;;;;;4962672;28;20054;-58
2023/08/08 06:29:59;;;;;;;25.10;11.05;;;15.60;99.90;;;;;;4978921;28;20112;-58
2023/08/08 06:32:24;;;;;;;24.90;12.45;;;15.60;99.90;;;;;;4971100;28;20191;-59
2023/08/08 06:34:50;;;;;;;27.65;11.38;;;15.60;99.90;;;;;;4972708;28;20073;-58
2023/08/08 06:37:16;;;;;;;21.85;9.43;;;15.70;99.90;;;;;;4981750;28;20038;-59
2023/08/08 06:39:41;;;;;;;28.10;11.00;;;15.70;99.90;;;;;;4984159;28;20034;-58
2023/08/08 06:42:07;;;;;;;19.35;9.30;;;15.70;99.90;;;;;;4983982;28;20343;-59
2023/08/08 06:44:40;;;;;;;19.40;10.02;;;15.80;99.90;;;;;;4986138;28;20042;-58
2023/08/08 06:47:06;;;;;;;26.55;9.98;;;15.90;99.90;;;;;;4983977;28;20541;-58
2023/08/08 06:49:31;;;;;;;27.23;9.65;;;15.90;99.90;;;;;;4979989;28;20387;-58
2023/08/08 06:51:57;;;;;;;26.83;12.48;;;16.00;99.90;;;;;;4986010;28;20043;-58
2023/08/08 06:54:22;;;;;;;28.52;12.27;;;16.00;99.90;;;;;;4980100;28;20662;-58
2023/08/08 06:56:48;;;;;;;36.60;12.32;;;16.00;99.90;;;;;;4981112;28;20188;-59
2023/08/08 06:59:14;;;;;;;30.58;11.98;;;16.00;99.90;;;;;;4986690;28;20546;-59
2023/08/08 07:01:40;;;;;;;31.38;11.68;;;16.00;99.90;;;;;;4985759;28;20030;-58
2023/08/08 07:04:05;;;;;;;26.00;11.73;;;16.10;99.90;;;;;;4985783;28;20421;-58
2023/08/08 07:06:31;;;;;;;36.53;11.95;;;16.20;99.90;;;;;;4982770;28;20043;-58
2023/08/08 07:08:57;;;;;;;36.50;11.88;;;16.30;99.90;;;;;;4985906;28;20053;-59
2023/08/08 07:11:24;;;;;;;30.05;11.57;;;16.50;99.90;;;;;;4980511;28;20038;-59
2023/08/08 07:13:50;;;;;;;26.40;10.93;;;16.60;99.90;;;;;;4975587;28;20034;-58
2023/08/08 07:16:15;;;;;;;25.20;10.57;;;16.70;99.90;;;;;;4980139;28;20050;-59
2023/08/08 07:18:41;;;;;;;24.98;10.43;;;16.70;99.90;;;;;;4982562;28;20031;-59
2023/08/08 07:21:06;;;;;;;26.02;9.13;;;16.60;99.90;;;;;;4981755;28;20070;-59
2023/08/08 07:23:32;;;;;;;28.60;8.45;;;16.60;99.90;;;;;;4977884;28;20042;-58
2023/08/08 07:25:58;;;;;;;21.70;7.60;;;16.60;99.90;;;;;;4984185;28;20065;-58
2023/08/08 07:28:23;;;;;;;18.73;6.35;;;16.50;99.90;;;;;;4983491;28;20038;-59
2023/08/08 07:30:49;;;;;;;16.15;6.35;;;16.60;99.90;;;;;;4983762;28;20039;-59
2023/08/08 07:33:14;;;;;;;19.88;6.35;;;16.70;99.90;;;;;;4985632;28;20643;-59
2023/08/08 07:35:40;;;;;;;19.38;6.78;;;16.80;99.90;;;;;;4981634;28;20484;-59
2023/08/08 07:38:05;;;;;;;23.88;6.88;;;16.90;99.90;;;;;;4977054;28;20061;-59
2023/08/08 07:40:31;;;;;;;21.13;8.13;;;17.00;99.90;;;;;;4978725;28;20410;-60
2023/08/08 07:42:57;;;;;;;20.80;7.18;;;17.00;99.90;;;;;;4983835;28;20145;-59
2023/08/08 07:45:22;;;;;;;19.92;7.10;;;17.00;99.90;;;;;;4982026;28;20034;-58
2023/08/08 07:47:48;;;;;;;20.25;7.22;;;17.10;99.90;;;;;;4984633;28;20439;-58
2023/08/08 07:50:13;;;;;;;12.75;5.32;;;17.00;99.90;;;;;;4981683;28;20045;-59
2023/08/08 07:52:40;;;;;;;20.40;5.45;;;17.10;99.90;;;;;;4978660;28;20046;-60
2023/08/08 07:55:06;;;;;;;13.50;5.05;;;17.30;99.90;;;;;;4986106;28;20051;-60
2023/08/08 07:57:35;;;;;;;18.42;6.07;;;17.30;99.90;;;;;;4984727;28;20041;-60
2023/08/08 08:00:11;;;;;;;13.25;4.97;;;17.30;99.90;;;;;;4965911;28;20034;-59
2023/08/08 08:02:37;;;;;;;12.85;4.90;;;17.40;99.90;;;;;;4984392;28;20030;-60
2023/08/08 08:05:05;;;;;;;12.05;4.57;;;17.50;99.90;;;;;;4979423;28;20398;-58
2023/08/08 08:07:32;;;;;;;10.48;4.28;;;17.50;99.90;;;;;;4981659;28;20049;-59
2023/08/08 08:09:57;;;;;;;11.68;4.25;;;17.60;99.90;;;;;;4984678;28;20038;-58
2023/08/08 08:12:23;;;;;;;15.63;4.40;;;17.60;99.90;;;;;;4983413;28;20042;-58
2023/08/08 08:14:49;;;;;;;12.05;3.92;;;17.70;99.90;;;;;;4980730;28;20037;-58
2023/08/08 08:17:14;;;;;;;11.82;3.85;;;17.70;99.90;;;;;;4963749;28;20034;-59
2023/08/08 08:19:40;;;;;;;17.02;4.03;;;17.80;99.90;;;;;;4981572;28;20496;-59
2023/08/08 08:22:05;;;;;;;10.15;3.85;;;17.80;99.90;;;;;;4977200;28;20039;-59
2023/08/08 08:24:31;;;;;;;15.55;3.90;;;17.90;99.90;;;;;;4963264;28;20060;-57
2023/08/08 08:26:57;;;;;;;13.80;4.43;;;17.90;99.90;;;;;;4980328;28;20065;-59
2023/08/08 08:29:22;;;;;;;12.43;3.85;;;17.80;99.90;;;;;;4985044;28;20131;-58
2023/08/08 08:31:48;;;;;;;11.52;3.53;;;17.90;99.90;;;;;;4981776;28;20035;-58
2023/08/08 08:34:13;;;;;;;11.60;3.63;;;17.90;99.90;;;;;;4979119;28;20023;-58
2023/08/08 08:36:39;;;;;;;10.65;3.67;;;18.00;99.90;;;;;;4981562;28;20030;-58
2023/08/08 08:39:13;;;;;;;11.23;4.00;;;18.10;99.90;;;;;;5054166;28;20579;-57
2023/08/08 08:41:39;;;;;;;11.10;4.07;;;18.20;99.90;;;;;;5034252;28;20080;-57
2023/08/08 08:44:06;;;;;;;13.25;3.95;;;18.30;99.90;;;;;;5036329;28;20072;-57
2023/08/08 08:46:32;;;;;;;9.23;3.70;;;18.40;99.90;;;;;;5050363;28;20040;-57
2023/08/08 08:48:59;;;;;;;18.25;6.20;;;18.40;99.90;;;;;;5052320;28;20031;-57
2023/08/08 08:51:25;;;;;;;12.15;3.88;;;18.50;99.90;;;;;;5054324;28;20075;-57
2023/08/08 08:53:51;;;;;;;12.48;4.28;;;18.60;99.90;;;;;;5059508;28;20450;-57
2023/08/08 08:56:17;;;;;;;13.75;4.38;;;18.50;99.90;;;;;;5055250;28;21279;-58
2023/08/08 08:58:43;;;;;;;11.90;4.90;;;18.50;99.90;;;;;;5036691;28;20500;-58
2023/08/08 09:01:10;;;;;;;15.60;4.88;;;18.60;99.90;;;;;;5019551;28;20044;-57
2023/08/08 09:03:36;;;;;;;18.45;5.43;;;18.50;99.90;;;;;;5022030;28;20108;-58
2023/08/08 09:06:04;;;;;;;17.80;5.50;;;18.50;99.90;;;;;;5021945;28;20034;-55
2023/08/08 09:08:30;;;;;;;15.25;4.15;;;18.60;99.90;;;;;;5029853;28;20044;-57
2023/08/08 09:10:56;;;;;;;13.63;4.10;;;18.60;99.90;;;;;;5020609;28;20045;-57
2023/08/08 09:13:22;;;;;;;16.90;4.10;;;18.50;99.90;;;;;;5021047;28;20046;-57
2023/08/08 09:15:51;;;;;;;10.80;3.97;;;18.40;99.90;;;;;;5022241;28;20038;-58
2023/08/08 09:18:17;;;;;;;14.40;3.97;;;18.50;99.90;;;;;;5021426;28;20042;-58
2023/08/08 09:20:48;;;;;;;14.88;4.47;;;18.50;99.90;;;;;;5047166;28;20036;-57
2023/08/08 09:23:14;;;;;;;19.23;4.78;;;18.50;99.90;;;;;;5039889;28;20037;-58
2023/08/08 09:25:39;;;;;;;14.68;4.55;;;18.50;99.90;;;;;;5036772;28;20033;-58
2023/08/08 09:28:05;;;;;;;16.73;5.15;;;18.60;99.90;;;;;;5020003;28;20125;-58
2023/08/08 09:30:31;;;;;;;13.13;4.95;;;18.50;99.90;;;;;;5021733;28;20038;-57
2023/08/08 09:33:03;;;;;;;13.50;3.95;;;18.60;99.90;;;;;;5028081;28;20064;-57
2023/08/08 09:35:30;;;;;;;15.65;4.85;;;18.80;99.90;;;;;;5018610;28;20038;-57
2023/08/08 09:37:55;;;;;;;16.63;4.57;;;18.70;99.90;;;;;;5022458;28;20069;-58
2023/08/08 09:40:23;;;;;;;16.23;4.32;;;18.60;99.90;;;;;;5020405;28;20072;-57
2023/08/08 09:42:51;;;;;;;13.73;4.63;;;18.50;99.90;;;;;;5021760;28;20040;-58
2023/08/08 09:45:17;;;;;;;15.75;4.57;;;18.40;99.90;;;;;;5028334;28;20122;-57
2023/08/08 09:47:42;;;;;;;23.88;5.15;;;18.40;99.90;;;;;;5035761;28;20489;-57
2023/08/08 09:50:08;;;;;;;18.38;5.38;;;18.50;99.90;;;;;;5006105;28;20062;-57
2023/08/08 09:52:35;;;;;;;17.92;4.63;;;18.50;99.90;;;;;;5007361;28;20041;-57
2023/08/08 09:55:02;;;;;;;12.73;4.75;;;18.60;99.90;;;;;;5009146;28;20041;-57
2023/08/08 09:57:28;;;;;;;10.38;4.13;;;18.50;99.90;;;;;;5019419;28;20537;-57
2023/08/08 09:59:55;;;;;;;20.10;3.95;;;18.50;99.90;;;;;;5010587;28;20034;-58
2023/08/08 10:02:21;;;;;;;13.70;3.60;;;18.70;99.90;;;;;;4993282;28;20034;-57
2023/08/08 10:04:47;;;;;;;14.88;3.90;;;18.80;99.90;;;;;;5001464;28;20056;-58
2023/08/08 10:07:14;;;;;;;12.75;3.67;;;18.80;99.90;;;;;;5022239;28;20053;-58
2023/08/08 10:09:40;;;;;;;21.13;4.40;;;18.80;99.90;;;;;;5026444;28;20420;-57
2023/08/08 10:12:07;;;;;;;14.98;4.00;;;18.80;99.90;;;;;;5009541;28;20096;-57
2023/08/08 10:14:36;;;;;;;15.75;3.80;;;18.90;99.90;;;;;;5018392;28;20099;-57
2023/08/08 10:17:06;;;;;;;15.50;3.83;;;18.90;99.90;;;;;;5023272;28;20057;-58
2023/08/08 10:19:32;;;;;;;9.45;3.78;;;18.90;99.90;;;;;;5024615;28;20084;-57
2023/08/08 10:22:09;;;;;;;16.85;4.30;;;18.90;99.90;;;;;;5027688;28;20036;-58
2023/08/08 10:24:36;;;;;;;9.77;3.88;;;18.80;99.90;;;;;;5012483;28;20497;-58
2023/08/08 10:27:04;;;;;;;18.08;4.32;;;18.80;99.90;;;;;;5008535;28;20092;-57
2023/08/08 10:29:31;;;;;;;14.02;4.15;;;18.70;99.90;;;;;;5023810;28;20041;-58
2023/08/08 10:32:05;;;;;;;11.65;3.90;;;18.70;99.90;;;;;;5007005;28;20038;-57
2023/08/08 10:34:41;;;;;;;10.05;2.88;;;18.80;99.90;;;;;;5022901;28;20040;-58
2023/08/08 10:37:15;;;;;;;11.75;3.58;;;18.80;99.90;;;;;;5027261;28;20048;-58
2023/08/08 10:40:07;;;;;;;6.60;2.97;;;18.80;99.90;;;;;;5021836;28;20048;-58
2023/08/08 10:42:43;;;;;;;11.85;3.55;;;18.80;99.90;;;;;;5025016;28;20737;-58
2023/08/08 10:45:15;;;;;;;7.80;2.72;;;18.70;99.90;;;;;;5023414;28;20044;-58
2023/08/08 10:47:42;;;;;;;10.73;2.80;;;18.70;99.90;;;;;;5016290;28;20041;-58
2023/08/08 10:50:11;;;;;;;7.38;2.67;;;18.70;99.90;;;;;;5019678;28;20295;-57
2023/08/08 10:52:52;;;;;;;8.35;2.58;;;18.60;99.90;;;;;;5005764;28;20444;-58
2023/08/08 10:55:23;;;;;;;9.68;2.95;;;18.60;99.90;;;;;;5013677;28;20080;-61
2023/08/08 10:58:06;;;;;;;10.35;2.97;;;18.60;99.90;;;;;;5025102;28;20038;-61
2023/08/08 11:00:34;;;;;;;11.13;3.35;;;18.80;99.90;;;;;;5019772;28;20124;-60
2023/08/08 11:03:00;;;;;;;9.27;3.60;;;18.80;99.90;;;;;;4999078;28;20038;-60
2023/08/08 11:05:30;;;;;;;13.02;3.35;;;18.80;99.90;;;;;;4998622;28;20401;-60
2023/08/08 11:07:56;;;;;;;9.52;3.70;;;18.70;99.90;;;;;;5000896;28;20038;-60
2023/08/08 11:10:22;;;;;;;14.57;3.80;;;18.70;99.90;;;;;;5006220;28;20508;-60
2023/08/08 11:12:56;;;;;;;15.23;3.70;;;18.80;99.90;;;;;;5004698;28;20392;-60
2023/08/08 11:15:22;;;;;;;11.75;3.40;;;18.80;99.90;;;;;;4998839;28;20042;-60
2023/08/08 11:17:49;;;;;;;11.70;3.65;;;19.00;99.90;;;;;;5007945;28;20247;-60
2023/08/08 11:20:14;;;;;;;10.45;3.42;;;19.00;99.90;;;;;;5002007;28;20073;-60
2023/08/08 11:22:40;;;;;;;11.82;3.53;;;19.00;99.90;;;;;;5005206;28;20038;-60
2023/08/08 11:25:07;;;;;;;12.32;5.13;;;19.20;99.90;;;;;;5000505;28;20045;-59
2023/08/08 11:27:33;;;;;;;13.93;3.30;;;19.40;99.90;;;;;;5001064;28;20381;-58
2023/08/08 11:29:59;;;;;;;10.25;3.75;;;19.40;99.90;;;;;;5014676;28;20037;-60
2023/08/08 11:32:28;;;;;;;10.48;3.53;;;19.40;99.90;;;;;;5010777;28;20035;-60
2023/08/08 11:34:54;;;;;;;10.07;3.10;;;19.10;99.90;;;;;;5007118;28;20129;-60
2023/08/08 11:37:21;;;;;;;9.95;3.72;;;19.10;99.90;;;;;;5002804;28;20038;-60
2023/08/08 11:39:47;;;;;;;8.63;3.40;;;19.10;99.90;;;;;;5002274;28;20038;-60
2023/08/08 11:42:13;;;;;;;9.70;3.25;;;19.10;99.90;;;;;;4996614;28;20037;-58
2023/08/08 11:44:38;;;;;;;9.27;3.28;;;19.20;99.90;;;;;;5020524;28;20040;-60
2023/08/08 11:47:04;;;;;;;9.23;3.05;;;19.40;99.90;;;;;;5025785;28;20412;-60
2023/08/08 11:49:30;;;;;;;9.68;3.15;;;19.40;99.90;;;;;;5024059;28;20025;-60
2023/08/08 11:51:56;;;;;;;8.82;3.50;;;19.40;99.90;;;;;;5025351;28;20030;-60
2023/08/08 11:54:21;;;;;;;7.70;2.67;;;19.60;99.90;;;;;;5022899;28;20049;-60
2023/08/08 11:56:47;;;;;;;9.27;2.40;;;19.50;99.90;;;;;;5025059;28;20048;-60
2023/08/08 11:59:13;;;;;;;8.52;2.50;;;19.60;99.90;;;;;;5029719;28;20068;-60
2023/08/08 12:01:38;;;;;;;8.70;2.60;;;19.60;99.90;;;;;;5026972;28;20535;-60
2023/08/08 12:04:10;;;;;;;9.20;2.60;;;19.50;99.90;;;;;;5022518;28;20041;-60
2023/08/08 12:06:40;;;;;;;7.13;2.28;;;19.50;99.90;;;;;;5025170;28;20033;-60
2023/08/08 12:09:06;;;;;;;6.50;2.50;;;19.60;99.90;;;;;;5021863;28;20056;-59
2023/08/08 12:11:36;;;;;;;6.15;2.75;;;19.70;99.90;;;;;;5004786;28;20417;-60
2023/08/08 12:14:02;;;;;;;8.63;2.80;;;19.60;99.90;;;;;;5003911;28;20107;-59
2023/08/08 12:16:32;;;;;;;10.57;2.17;;;19.70;99.90;;;;;;5004860;28;20033;-60
2023/08/08 12:19:00;;;;;;;7.80;2.70;;;19.80;99.90;;;;;;5019856;28;20038;-60
2023/08/08 12:21:26;;;;;;;9.20;3.03;;;19.80;99.90;;;;;;5023220;28;20057;-60
2023/08/08 12:23:52;;;;;;;7.53;2.85;;;19.80;99.90;;;;;;5025924;28;20413;-60
2023/08/08 12:26:18;;;;;;;7.47;2.45;;;19.80;99.90;;;;;;5005633;28;20041;-60
2023/08/08 12:28:44;;;;;;;8.10;2.85;;;19.70;99.90;;;;;;5017546;28;20460;-60
2023/08/08 12:31:10;;;;;;;9.57;2.50;;;19.50;99.90;;;;;;4995362;28;20042;-60
2023/08/08 12:33:35;;;;;;;9.43;2.97;;;19.60;99.90;;;;;;5006025;28;20571;-59
2023/08/08 12:36:01;;;;;;;10.80;3.65;;;19.70;99.90;;;;;;5003189;28;20042;-60
2023/08/08 12:38:26;;;;;;;8.95;3.30;;;19.70;99.90;;;;;;4999809;28;20038;-60